Pagrindinis puslapis
METAR-TAF:

METAR-TAF

Oro uostai :

Gibraltaras, Gibraltaras

platuma: 36-09N, ilguma: 005-21W, Aukštis: 5 m

Dabartinis oras

Ataskaita buvo paskelbta 39 minutes, ne 10:20 UTC
Vėjas 14 kt iš Vakarų/Pietvakarių
Temperatūra 21°C
Drėgmė 78%
Slėgis 1012 hPa
Matomumas: 7000 m
Mažai debesys ne aukštis 1300 ft
Su prošvaistėmis ne aukštis 2400 ft
lietus

METAR: LXGB 041020Z 24014KT 9999 7000W -SHRA FEW013 BKN024 21/17 Q1012 TEMPO 9999 NSW

Laikas: 12:59 (10:59 UTC)

Prognozė

Ataskaita buvo paskelbta 3 valandos ir 24 minutes, ne 07:35 UTC
Prognozė galioja nuo 04 metu 09 UTC su 04 metu 18 UTC
Vėjas 14 kt iš Vakarų
Matomumas 10 km arba daugiau
Mažai debesys ne aukštis 2500 ft
Tikimybė 30% :
Laikinai
nuo 04 metu 09 UTC su 04 metu 17 UTC
Vėjas 18 kt iš Vakarų/Pietvakarių su gūsio iki 28 kt
Matomumas: 7000 m
Išsisklaidę debesys ne aukštis 1200 ft
lietus

TAF: LXGB 040735Z 0409/0418 26014KT 9999 FEW025 PROB30 TEMPO 0409/0417 25018G28KT 7000 SHRA SCT012 520002

Orai ataskaitas ir orų prognozės (METAR, TAF).

turimą stotys yra geltonos ir raudonos taškus žemėlapyje.

Perkelti pele per norėdami pamatyti stoties vardą.

Tada spustelėkite, norėdami matyti oro stebėjimo ir prognozės.

Norėdami pakeisti žemėlapį: spustelėkite ant žalios mygtukų su juodo kryžiaus žemyn,; žalią mygtuką su brūkšneliu, jei norite nutolinti; arba žalių rodyklių gretimoms žemėlapius.


METAR-TAF: